createdAt,value
2022-11-15T00:09:01.716Z,100730.91
2022-11-15T00:19:24.614Z,100731.09
2022-11-15T00:29:46.102Z,100728.66
2022-11-15T00:40:10.781Z,100715.38
2022-11-15T00:50:32.248Z,100707.81
2022-11-15T01:00:55.810Z,100706.28
2022-11-15T01:11:17.245Z,100692.75
2022-11-15T01:21:39.984Z,100691.31
2022-11-15T01:32:01.393Z,100679.91
2022-11-15T01:42:24.150Z,100675.38
2022-11-15T01:52:45.618Z,100678.38
2022-11-15T02:03:08.815Z,100678.25
2022-11-15T02:13:30.673Z,100664.56
2022-11-15T02:24:25.858Z,100658.69
2022-11-15T02:34:56.929Z,100648.78
2022-11-15T02:45:23.524Z,100638.97
2022-11-15T02:55:49.642Z,100630.13
2022-11-15T03:06:22.728Z,100608.09
2022-11-15T03:16:50.402Z,100616.50
2022-11-15T03:27:15.514Z,100613.84
2022-11-15T03:37:42.705Z,100623.53
2022-11-15T03:48:09.535Z,100619.06
2022-11-15T03:58:32.006Z,100625.28
2022-11-15T04:08:53.385Z,100623.97
2022-11-15T04:19:33.349Z,100609.91
2022-11-15T04:29:54.913Z,100602.06
2022-11-15T04:40:18.485Z,100614.91
2022-11-15T04:50:39.928Z,100615.03
2022-11-15T05:01:09.036Z,100618.19
2022-11-15T05:11:30.416Z,100612.84
2022-11-15T05:21:53.014Z,100606.63
2022-11-15T05:32:15.532Z,100599.56
2022-11-15T05:42:38.417Z,100586.47
2022-11-15T05:53:04.951Z,100590.09
2022-11-15T06:03:28.701Z,100626.50
2022-11-15T06:13:50.665Z,100623.19
2022-11-15T06:24:13.559Z,100627.78
2022-11-15T06:34:36.784Z,100621.00
2022-11-15T06:44:59.512Z,100632.91
2022-11-15T06:55:20.926Z,100648.94
2022-11-15T07:05:43.582Z,100650.69
2022-11-15T07:16:06.224Z,100661.16
2022-11-15T07:26:29.244Z,100658.88
2022-11-15T07:36:50.935Z,100658.13
2022-11-15T07:47:13.613Z,100645.78
2022-11-15T07:57:35.156Z,100657.28
2022-11-15T08:07:58.644Z,100660.84
2022-11-15T08:18:20.342Z,100671.44
2022-11-15T08:28:43.878Z,100655.53
2022-11-15T08:39:06.022Z,100647.34
2022-11-15T08:49:28.692Z,100633.44
2022-11-15T08:59:50.310Z,100625.84
2022-11-15T09:10:13.301Z,100608.22
2022-11-15T09:20:35.182Z,100589.19
2022-11-15T09:31:00.825Z,100595.16
2022-11-15T09:41:50.684Z,100592.28
2022-11-15T09:52:13.969Z,100593.38
2022-11-15T10:02:22.771Z,100572.88
2022-11-15T10:12:28.256Z,100557.72
2022-11-15T10:22:41.510Z,100566.91
2022-11-15T10:32:48.382Z,100563.06
2022-11-15T10:43:07.622Z,100545.16
2022-11-15T10:53:24.282Z,100518.03
2022-11-15T11:03:40.681Z,100519.94
2022-11-15T11:13:46.724Z,100503.63
2022-11-15T11:24:00.784Z,100460.88
2022-11-15T11:34:17.633Z,100456.09
2022-11-15T11:44:30.576Z,100437.69
2022-11-15T11:54:42.359Z,100418.44
2022-11-15T12:04:50.653Z,100388.84
2022-11-15T12:14:58.591Z,100385.63
2022-11-15T12:25:06.711Z,100365.13
2022-11-15T12:35:26.486Z,100341.44
2022-11-15T12:45:32.320Z,100325.59
2022-11-15T12:55:36.767Z,100320.03
2022-11-15T13:06:11.432Z,100288.09
2022-11-15T13:16:22.848Z,100276.81
2022-11-15T13:26:40.987Z,100265.50
2022-11-15T13:36:53.236Z,100241.13
2022-11-15T13:47:07.495Z,100227.56
2022-11-15T13:57:16.556Z,100205.72
2022-11-15T14:07:21.701Z,100188.78
2022-11-15T14:17:45.677Z,100170.00
2022-11-15T14:28:38.586Z,100154.22
2022-11-15T14:38:52.019Z,100134.50
2022-11-15T14:48:57.781Z,100123.00
2022-11-15T14:59:05.344Z,100097.78
2022-11-15T15:09:15.288Z,100082.00
2022-11-15T15:19:21.716Z,100071.44
2022-11-15T15:29:24.732Z,100062.94
2022-11-15T15:39:29.072Z,100051.56
2022-11-15T15:49:32.104Z,100050.53
2022-11-15T15:59:37.581Z,100047.81
2022-11-15T16:09:57.854Z,100040.84
2022-11-15T16:20:02.487Z,100036.41
2022-11-15T16:30:06.441Z,100043.69
2022-11-15T16:40:28.387Z,100040.59
2022-11-15T16:50:35.116Z,100026.72
2022-11-15T17:00:39.557Z,100028.53
2022-11-15T17:10:43.081Z,100027.03
2022-11-15T17:20:47.453Z,100012.50
2022-11-15T17:30:50.478Z,100003.88
2022-11-15T17:41:04.017Z,100002.66
2022-11-15T17:51:10.775Z,99995.28
2022-11-15T18:01:18.640Z,100002.25
2022-11-15T18:11:24.835Z,99976.19
2022-11-15T18:21:30.472Z,99970.72
2022-11-15T18:31:33.396Z,99962.41
2022-11-15T18:41:37.775Z,99944.56
2022-11-15T18:51:41.960Z,99941.66
2022-11-15T19:01:48.318Z,99946.78
2022-11-15T19:11:52.225Z,99937.81
2022-11-15T19:21:58.144Z,99928.91
2022-11-15T19:32:01.165Z,99926.44
2022-11-15T19:42:05.524Z,99912.97
2022-11-15T19:52:08.737Z,99915.84
2022-11-15T20:02:13.483Z,99907.94
2022-11-15T20:12:16.394Z,99902.16
2022-11-15T20:22:20.818Z,99889.72
2022-11-15T20:32:23.846Z,99877.59
2022-11-15T20:42:28.179Z,99875.91
2022-11-15T20:52:31.101Z,99860.31
2022-11-15T21:02:35.849Z,99857.59
2022-11-15T21:12:38.957Z,99853.34
2022-11-15T21:22:43.371Z,99838.75
2022-11-15T21:32:46.650Z,99838.13
2022-11-15T21:42:51.084Z,99821.75
2022-11-15T21:52:54.018Z,99804.66
2022-11-15T22:02:58.346Z,99804.66
2022-11-15T22:13:01.399Z,99795.25
2022-11-15T22:23:06.318Z,99780.84
2022-11-15T22:33:09.272Z,99764.38
2022-11-15T22:43:14.752Z,99757.22
2022-11-15T22:53:17.820Z,99749.50
2022-11-15T23:03:22.599Z,99749.31
2022-11-15T23:13:27.567Z,99735.69
2022-11-15T23:23:31.889Z,99740.69
2022-11-15T23:33:52.421Z,99737.47
2022-11-15T23:43:56.735Z,99730.34
2022-11-15T23:53:59.631Z,99733.34
